createdAt,value
2019-04-13T00:02:07.321Z,7.20
2019-04-13T00:04:43.079Z,10.25
2019-04-13T00:07:12.830Z,9.40
2019-04-13T00:09:41.213Z,6.92
2019-04-13T00:12:16.722Z,8.33
2019-04-13T00:14:45.179Z,7.80
2019-04-13T00:17:15.177Z,8.98
2019-04-13T00:19:45.617Z,6.92
2019-04-13T00:22:13.954Z,9.08
2019-04-13T00:24:42.634Z,8.85
2019-04-13T00:27:13.042Z,8.30
2019-04-13T00:29:44.446Z,9.80
2019-04-13T00:32:15.191Z,7.15
2019-04-13T00:34:49.127Z,8.80
2019-04-13T00:37:20.455Z,7.50
2019-04-13T00:39:51.604Z,7.12
2019-04-13T00:42:20.017Z,7.70
2019-04-13T00:44:50.806Z,7.83
2019-04-13T00:47:22.065Z,8.38
2019-04-13T00:49:53.974Z,8.00
2019-04-13T00:52:22.410Z,7.97
2019-04-13T00:54:50.897Z,7.42
2019-04-13T00:57:20.914Z,10.20
2019-04-13T00:59:49.384Z,7.03
2019-04-13T01:02:18.022Z,8.18
2019-04-13T01:04:53.393Z,5.97
2019-04-13T01:07:22.415Z,8.53
2019-04-13T01:09:48.341Z,7.28
2019-04-13T01:12:16.879Z,6.45
2019-04-13T01:14:45.396Z,8.28
2019-04-13T01:17:13.840Z,8.68
2019-04-13T01:19:42.361Z,6.70
2019-04-13T01:22:10.962Z,7.92
2019-04-13T01:24:39.485Z,10.05
2019-04-13T01:27:09.421Z,7.05
2019-04-13T01:29:38.239Z,8.70
2019-04-13T01:32:06.631Z,9.70
2019-04-13T01:34:35.274Z,9.65
2019-04-13T01:37:03.677Z,7.97
2019-04-13T01:39:32.115Z,7.72
2019-04-13T01:42:00.756Z,7.50
2019-04-13T01:44:29.233Z,7.72
2019-04-13T01:46:57.732Z,8.05
2019-04-13T01:49:29.373Z,8.43
2019-04-13T01:51:57.874Z,6.05
2019-04-13T01:54:26.318Z,7.53
2019-04-13T01:56:58.285Z,7.35
2019-04-13T01:59:31.678Z,6.83
2019-04-13T02:02:03.682Z,6.50
2019-04-13T02:04:45.829Z,5.72
2019-04-13T02:07:32.305Z,8.23
2019-04-13T02:10:14.394Z,8.25
2019-04-13T02:12:44.483Z,7.42
2019-04-13T02:15:17.827Z,6.85
2019-04-13T02:17:46.795Z,6.72
2019-04-13T02:20:16.510Z,7.17
2019-04-13T02:22:45.014Z,9.08
2019-04-13T02:25:15.206Z,9.88
2019-04-13T02:27:49.909Z,8.33
2019-04-13T02:30:27.083Z,7.90
2019-04-13T02:32:55.515Z,7.75
2019-04-13T02:35:35.076Z,6.42
2019-04-13T02:37:54.112Z,8.33
2019-04-13T02:40:24.821Z,7.60
2019-04-13T02:42:53.312Z,8.58
2019-04-13T02:45:24.879Z,7.33
2019-04-13T02:47:53.352Z,9.03
2019-04-13T02:50:22.172Z,9.10
2019-04-13T02:52:50.650Z,7.60
2019-04-13T02:55:19.097Z,9.03
2019-04-13T02:57:47.675Z,8.80
2019-04-13T03:00:17.968Z,8.33
2019-04-13T03:02:51.238Z,9.03
2019-04-13T03:05:21.318Z,8.00
2019-04-13T03:07:49.894Z,9.85
2019-04-13T03:10:20.333Z,6.53
2019-04-13T03:12:49.021Z,8.95
2019-04-13T03:18:13.292Z,7.45
2019-04-13T03:20:43.417Z,8.25
2019-04-13T03:23:11.990Z,6.50
2019-04-13T03:25:43.191Z,8.15
2019-04-13T03:28:12.194Z,7.53
2019-04-13T03:30:41.567Z,7.87
2019-04-13T03:33:11.654Z,8.95
2019-04-13T03:35:44.880Z,8.55
2019-04-13T03:38:13.720Z,8.55
2019-04-13T03:40:44.605Z,8.70
2019-04-13T03:43:14.658Z,9.75
2019-04-13T03:45:43.918Z,10.90
2019-04-13T03:48:15.302Z,9.48
2019-04-13T03:50:46.871Z,9.33
2019-04-13T03:53:15.362Z,8.38
2019-04-13T03:55:44.133Z,11.38
2019-04-13T03:58:12.631Z,10.53
2019-04-13T04:00:48.741Z,10.28
2019-04-13T04:03:20.482Z,10.15
2019-04-13T04:05:51.569Z,9.18
2019-04-13T04:08:20.129Z,8.05
2019-04-13T04:10:48.595Z,9.53
2019-04-13T04:13:17.302Z,8.85
2019-04-13T04:15:45.722Z,7.45
2019-04-13T04:18:14.488Z,9.28
2019-04-13T04:20:44.558Z,24.92
2019-04-13T04:23:15.022Z,12.33
2019-04-13T04:25:43.461Z,8.20
2019-04-13T04:28:11.857Z,8.25
2019-04-13T04:30:40.339Z,9.83
2019-04-13T04:33:08.833Z,9.18
2019-04-13T04:35:37.302Z,10.88
2019-04-13T04:38:06.438Z,9.68
2019-04-13T04:40:36.843Z,8.90
2019-04-13T04:43:05.518Z,9.48
2019-04-13T04:45:35.508Z,9.20
2019-04-13T04:48:03.892Z,7.42
2019-04-13T04:50:33.871Z,10.10
2019-04-13T04:53:05.010Z,8.48
2019-04-13T04:55:33.526Z,5.92
2019-04-13T04:58:04.790Z,7.22
2019-04-13T05:00:34.774Z,9.28
2019-04-13T05:05:52.527Z,10.35
2019-04-13T05:08:21.082Z,9.75
2019-04-13T05:10:50.660Z,12.65
2019-04-13T05:13:19.054Z,10.20
2019-04-13T05:15:49.373Z,12.73
2019-04-13T05:18:17.858Z,10.08
2019-04-13T05:20:46.273Z,10.98
2019-04-13T05:23:14.696Z,11.90
2019-04-13T05:25:46.042Z,10.72
2019-04-13T05:28:14.484Z,10.25
2019-04-13T05:30:45.861Z,12.47
2019-04-13T05:33:14.722Z,12.63
2019-04-13T05:35:43.196Z,15.08
2019-04-13T05:38:14.631Z,13.45
2019-04-13T05:40:45.446Z,12.50
2019-04-13T05:43:15.611Z,12.60
2019-04-13T05:45:44.014Z,12.28
2019-04-13T05:48:12.445Z,14.28
2019-04-13T05:50:41.171Z,16.75
2019-04-13T05:53:09.849Z,17.73
2019-04-13T05:55:38.501Z,12.60
2019-04-13T05:58:06.925Z,14.40
2019-04-13T06:00:41.415Z,11.33
2019-04-13T06:03:10.359Z,17.07
2019-04-13T06:05:39.037Z,14.55
2019-04-13T06:08:07.505Z,14.85
2019-04-13T06:10:36.235Z,13.98
2019-04-13T06:13:06.523Z,14.45
2019-04-13T06:15:35.216Z,13.30
2019-04-13T06:18:06.998Z,13.90
2019-04-13T06:20:33.753Z,15.63
2019-04-13T06:23:02.318Z,16.75
2019-04-13T06:25:30.954Z,14.93
2019-04-13T06:27:59.518Z,15.45
2019-04-13T06:30:41.487Z,17.57
2019-04-13T06:33:29.085Z,17.85
2019-04-13T06:36:03.108Z,14.93
2019-04-13T06:38:31.935Z,15.20
2019-04-13T06:41:00.687Z,16.37
2019-04-13T06:43:32.230Z,12.82
2019-04-13T06:46:01.078Z,13.88
2019-04-13T06:48:29.517Z,13.08
2019-04-13T06:50:58.119Z,13.90
2019-04-13T06:53:26.589Z,13.32
2019-04-13T06:55:55.358Z,12.73
2019-04-13T06:58:23.963Z,14.80
2019-04-13T07:00:52.662Z,14.23
2019-04-13T07:03:22.334Z,16.32
2019-04-13T07:05:50.850Z,13.65
2019-04-13T07:08:37.819Z,15.27
2019-04-13T07:11:10.901Z,13.60
2019-04-13T07:13:43.744Z,12.20
2019-04-13T07:16:19.646Z,14.87
2019-04-13T07:18:48.203Z,13.07
2019-04-13T07:21:20.082Z,13.10
2019-04-13T07:23:48.761Z,14.97
2019-04-13T07:26:17.162Z,12.10
2019-04-13T07:28:47.719Z,11.97
2019-04-13T07:31:15.946Z,12.27
2019-04-13T07:33:44.363Z,13.03
2019-04-13T07:36:13.031Z,13.40
2019-04-13T07:38:46.858Z,12.07
2019-04-13T07:41:12.027Z,12.60
2019-04-13T07:43:40.442Z,13.33
2019-04-13T07:46:18.002Z,14.17
2019-04-13T07:49:04.312Z,13.77
2019-04-13T07:51:37.195Z,11.67
2019-04-13T07:54:07.683Z,13.33
2019-04-13T07:56:36.850Z,16.80
2019-04-13T07:59:05.444Z,14.53
2019-04-13T08:01:34.167Z,12.03
2019-04-13T08:04:02.899Z,11.57
2019-04-13T08:06:31.611Z,12.43
2019-04-13T08:09:00.222Z,13.10
2019-04-13T08:11:28.682Z,12.53
2019-04-13T08:13:58.976Z,14.18
2019-04-13T08:16:29.297Z,15.45
2019-04-13T08:19:14.967Z,17.45
2019-04-13T08:21:46.433Z,12.65
2019-04-13T08:24:16.499Z,10.05
2019-04-13T08:26:48.955Z,9.45
2019-04-13T08:29:17.256Z,9.08
2019-04-13T08:31:45.938Z,7.35
2019-04-13T08:34:17.479Z,8.45
2019-04-13T08:36:48.858Z,6.50
2019-04-13T08:39:17.262Z,5.30
2019-04-13T08:41:45.674Z,5.85
2019-04-13T08:44:14.165Z,6.80
2019-04-13T08:46:42.899Z,5.28
2019-04-13T08:49:11.286Z,7.67
2019-04-13T08:51:40.023Z,9.23
2019-04-13T08:54:10.062Z,8.18
2019-04-13T08:56:45.938Z,9.68
2019-04-13T08:59:18.336Z,6.62
2019-04-13T09:01:48.463Z,8.38
2019-04-13T09:04:17.133Z,8.30
2019-04-13T09:06:47.093Z,8.05
2019-04-13T09:09:15.599Z,9.25
2019-04-13T09:11:43.979Z,7.70
2019-04-13T09:14:14.045Z,10.45
2019-04-13T09:16:42.866Z,7.35
2019-04-13T09:19:29.369Z,7.30
2019-04-13T09:21:59.702Z,8.85
2019-04-13T09:24:28.338Z,7.70
2019-04-13T09:26:57.127Z,5.90
2019-04-13T09:29:25.558Z,7.08
2019-04-13T09:31:53.988Z,6.07
2019-04-13T09:34:33.073Z,7.67
2019-04-13T09:36:52.862Z,5.97
2019-04-13T09:39:22.024Z,6.33
2019-04-13T09:41:51.010Z,8.70
2019-04-13T09:44:21.530Z,8.58
2019-04-13T09:46:50.542Z,8.00
2019-04-13T09:49:19.794Z,6.83
2019-04-13T09:51:50.387Z,5.70
2019-04-13T09:54:18.850Z,8.33
2019-04-13T09:56:52.516Z,7.40
2019-04-13T09:59:23.227Z,7.30
2019-04-13T10:01:53.660Z,8.37
2019-04-13T10:04:22.418Z,8.80
2019-04-13T10:06:51.074Z,9.33
2019-04-13T10:09:19.485Z,8.30
2019-04-13T10:11:52.805Z,8.30
2019-04-13T10:14:39.756Z,8.87
2019-04-13T10:17:23.296Z,9.70
2019-04-13T10:19:49.135Z,8.70
2019-04-13T10:22:20.301Z,8.63
2019-04-13T10:24:47.950Z,10.53
2019-04-13T10:27:19.150Z,8.60
2019-04-13T10:29:50.278Z,8.33
2019-04-13T10:32:19.058Z,9.90
2019-04-13T10:34:47.482Z,10.70
2019-04-13T10:37:29.782Z,8.50
2019-04-13T10:40:00.026Z,9.47
2019-04-13T10:42:28.604Z,7.60
2019-04-13T10:44:58.730Z,15.23
2019-04-13T10:47:31.603Z,12.53
2019-04-13T10:50:07.489Z,9.75
2019-04-13T10:52:35.158Z,11.03
2019-04-13T10:55:05.393Z,7.58
2019-04-13T10:57:33.800Z,8.10
2019-04-13T11:00:02.468Z,9.28
2019-04-13T11:02:34.211Z,9.78
2019-04-13T11:05:03.005Z,10.48
2019-04-13T11:07:32.439Z,13.70
2019-04-13T11:10:04.305Z,12.45
2019-04-13T11:12:32.820Z,11.28
2019-04-13T11:15:03.395Z,9.85
2019-04-13T11:20:22.489Z,10.03
2019-04-13T11:22:56.685Z,8.80
2019-04-13T11:25:22.680Z,9.60
2019-04-13T11:27:51.098Z,9.87
2019-04-13T11:30:22.367Z,9.40
2019-04-13T11:32:51.215Z,11.17
2019-04-13T11:35:19.789Z,12.43
2019-04-13T11:37:48.320Z,11.73
2019-04-13T11:40:17.131Z,11.75
2019-04-13T11:42:49.901Z,11.30
2019-04-13T11:45:26.167Z,12.82
2019-04-13T11:48:12.655Z,13.55
2019-04-13T11:50:44.439Z,10.50
2019-04-13T11:53:15.576Z,11.43
2019-04-13T11:55:45.525Z,9.38
2019-04-13T11:58:13.960Z,10.23
2019-04-13T12:00:44.304Z,9.65
2019-04-13T12:03:31.918Z,9.43
2019-04-13T12:06:11.262Z,8.35
2019-04-13T12:08:41.319Z,8.23
2019-04-13T12:11:23.396Z,8.60
2019-04-13T12:13:53.513Z,8.63
2019-04-13T12:16:23.815Z,8.60
2019-04-13T12:18:54.103Z,6.93
2019-04-13T12:21:40.550Z,11.60
2019-04-13T12:24:10.612Z,7.33
2019-04-13T12:26:39.019Z,12.53
2019-04-13T12:29:07.425Z,8.67
2019-04-13T12:31:39.145Z,8.80
2019-04-13T12:34:06.934Z,9.35
2019-04-13T12:36:35.346Z,12.30
2019-04-13T12:39:07.565Z,9.25
2019-04-13T12:41:37.086Z,8.98
2019-04-13T12:44:05.533Z,9.55
2019-04-13T12:46:34.198Z,7.35
2019-04-13T12:49:02.624Z,10.32
2019-04-13T12:51:34.059Z,10.43
2019-04-13T12:54:04.617Z,8.65
2019-04-13T12:56:32.848Z,7.27
2019-04-13T12:59:01.500Z,8.13
2019-04-13T13:01:37.695Z,6.93
2019-04-13T13:04:06.182Z,6.93
2019-04-13T13:06:34.594Z,6.03
2019-04-13T13:09:03.732Z,5.90
2019-04-13T13:11:32.256Z,6.40
2019-04-13T13:14:00.882Z,12.43
2019-04-13T13:16:29.591Z,9.18
2019-04-13T13:18:58.348Z,8.20
2019-04-13T13:21:28.390Z,6.80
2019-04-13T13:23:56.810Z,7.95
2019-04-13T13:26:25.233Z,10.10
2019-04-13T13:28:53.932Z,13.85
2019-04-13T13:31:24.581Z,11.10
2019-04-13T13:33:53.286Z,7.22
2019-04-13T13:36:21.930Z,11.05
2019-04-13T13:38:50.348Z,9.23
2019-04-13T13:41:18.748Z,9.25
2019-04-13T13:43:47.146Z,11.00
2019-04-13T13:46:15.566Z,12.37
2019-04-13T13:48:44.243Z,11.68
2019-04-13T13:51:12.643Z,13.22
2019-04-13T13:53:42.069Z,17.25
2019-04-13T13:56:11.134Z,10.32
2019-04-13T13:58:41.659Z,14.70
2019-04-13T14:01:12.415Z,12.68
2019-04-13T14:03:40.885Z,12.25
2019-04-13T14:06:09.293Z,11.48
2019-04-13T14:08:37.723Z,10.95
2019-04-13T14:11:06.350Z,9.98
2019-04-13T14:13:34.986Z,12.18
2019-04-13T14:16:03.398Z,12.03
2019-04-13T14:18:32.059Z,13.58
2019-04-13T14:21:00.478Z,13.00
2019-04-13T14:23:28.903Z,11.97
2019-04-13T14:25:57.297Z,10.95
2019-04-13T14:28:25.941Z,9.70
2019-04-13T14:30:54.613Z,10.98
2019-04-13T14:33:22.994Z,12.00
2019-04-13T14:35:51.655Z,8.90
2019-04-13T14:38:23.033Z,10.13
2019-04-13T14:40:56.199Z,10.25
2019-04-13T14:43:37.927Z,10.50
2019-04-13T14:46:08.303Z,9.00
2019-04-13T14:48:36.951Z,8.90
2019-04-13T14:51:06.318Z,9.58
2019-04-13T14:53:35.020Z,8.75
2019-04-13T14:56:05.138Z,9.18
2019-04-13T14:58:33.819Z,9.95
2019-04-13T15:01:04.313Z,17.48
2019-04-13T15:03:33.008Z,11.05
2019-04-13T15:06:01.505Z,10.00
2019-04-13T15:08:30.447Z,8.65
2019-04-13T15:11:15.968Z,12.13
2019-04-13T15:13:29.596Z,9.05
2019-04-13T15:15:59.011Z,12.23
2019-04-13T15:18:36.926Z,10.82
2019-04-13T15:21:06.777Z,11.00
2019-04-13T15:23:39.289Z,9.55
2019-04-13T15:26:08.256Z,9.80
2019-04-13T15:28:38.370Z,10.38
2019-04-13T15:31:07.823Z,12.63
2019-04-13T15:33:37.209Z,9.88
2019-04-13T15:36:06.849Z,11.85
2019-04-13T15:38:37.360Z,10.65
2019-04-13T15:41:09.586Z,11.40
2019-04-13T15:43:37.875Z,10.18
2019-04-13T15:46:07.151Z,12.25
2019-04-13T15:48:36.843Z,10.72
2019-04-13T15:51:05.796Z,10.85
2019-04-13T15:53:34.610Z,11.08
2019-04-13T15:56:03.022Z,12.80
2019-04-13T15:58:31.420Z,12.63
2019-04-13T16:01:00.858Z,10.58
2019-04-13T16:03:30.421Z,10.48
2019-04-13T16:06:00.325Z,11.50
2019-04-13T16:08:30.714Z,12.15
2019-04-13T16:11:03.614Z,11.18
2019-04-13T16:13:32.600Z,13.75
2019-04-13T16:16:04.959Z,9.75
2019-04-13T16:18:34.752Z,12.05
2019-04-13T16:21:04.262Z,11.28
2019-04-13T16:23:32.813Z,10.90
2019-04-13T16:26:01.902Z,10.03
2019-04-13T16:28:44.143Z,10.95
2019-04-13T16:31:20.414Z,11.70
2019-04-13T16:33:56.622Z,12.85
2019-04-13T16:36:41.910Z,9.98
2019-04-13T16:39:17.187Z,8.95
2019-04-13T16:41:55.096Z,9.83
2019-04-13T16:44:30.932Z,9.50
2019-04-13T16:47:10.012Z,8.58
2019-04-13T16:49:49.044Z,8.60
2019-04-13T16:52:32.146Z,9.33
2019-04-13T16:55:10.197Z,10.85
2019-04-13T16:57:46.567Z,12.68
2019-04-13T17:00:17.152Z,11.97
2019-04-13T17:02:49.887Z,12.37
2019-04-13T17:05:23.078Z,12.37
2019-04-13T17:07:51.547Z,12.25
2019-04-13T17:10:20.011Z,14.98
2019-04-13T17:12:49.392Z,13.78
2019-04-13T17:15:19.127Z,10.70
2019-04-13T17:17:49.452Z,12.23
2019-04-13T17:20:35.690Z,8.78
2019-04-13T17:23:21.911Z,9.45
2019-04-13T17:25:52.119Z,8.08
2019-04-13T17:28:31.468Z,8.78
2019-04-13T17:31:05.498Z,7.28
2019-04-13T17:33:36.010Z,8.65
2019-04-13T17:36:06.309Z,8.70
2019-04-13T17:38:35.135Z,8.60
2019-04-13T17:41:23.679Z,8.05
2019-04-13T17:43:57.327Z,9.65
2019-04-13T17:46:36.857Z,7.40
2019-04-13T17:49:23.436Z,6.97
2019-04-13T17:51:54.629Z,6.20
2019-04-13T17:54:24.829Z,7.37
2019-04-13T17:56:59.257Z,7.22
2019-04-13T17:59:47.117Z,8.70
2019-04-13T18:02:36.237Z,9.50
2019-04-13T18:05:25.047Z,7.72
2019-04-13T18:08:03.737Z,7.80
2019-04-13T18:10:38.140Z,9.33
2019-04-13T18:13:12.063Z,9.70
2019-04-13T18:15:48.955Z,9.33
2019-04-13T18:18:24.562Z,11.48
2019-04-13T18:20:53.485Z,9.23
2019-04-13T18:23:22.994Z,12.88
2019-04-13T18:25:56.233Z,14.05
2019-04-13T18:28:25.048Z,10.53
2019-04-13T18:30:53.922Z,10.78
2019-04-13T18:33:26.131Z,11.30
2019-04-13T18:35:56.210Z,12.78
2019-04-13T18:38:25.120Z,12.15
2019-04-13T18:40:53.960Z,11.50
2019-04-13T18:43:26.369Z,10.70
2019-04-13T18:45:53.796Z,10.00
2019-04-13T18:48:22.822Z,7.85
2019-04-13T18:50:54.551Z,10.93
2019-04-13T18:53:24.065Z,13.00
2019-04-13T18:55:53.746Z,18.07
2019-04-13T18:58:22.900Z,12.75
2019-04-13T19:00:55.004Z,11.18
2019-04-13T19:03:23.725Z,12.80
2019-04-13T19:05:52.347Z,10.85
2019-04-13T19:08:20.843Z,11.93
2019-04-13T19:10:49.515Z,11.28
2019-04-13T19:13:17.948Z,11.50
2019-04-13T19:15:48.211Z,11.25
2019-04-13T19:18:17.541Z,13.30
2019-04-13T19:20:46.520Z,13.93
2019-04-13T19:23:16.935Z,13.50
2019-04-13T19:25:45.862Z,13.13
2019-04-13T19:28:15.235Z,13.18
2019-04-13T19:30:51.723Z,14.68
2019-04-13T19:33:22.260Z,11.43
2019-04-13T19:38:42.971Z,13.43
2019-04-13T19:41:11.774Z,11.88
2019-04-13T19:43:41.018Z,13.40
2019-04-13T19:46:10.828Z,15.55
2019-04-13T19:48:42.709Z,17.60
2019-04-13T19:51:11.522Z,12.18
2019-04-13T19:53:41.919Z,12.13
2019-04-13T19:56:15.279Z,14.28
2019-04-13T19:58:44.170Z,14.63
2019-04-13T20:01:17.347Z,11.88
2019-04-13T20:03:45.833Z,12.33
2019-04-13T20:06:19.079Z,11.43
2019-04-13T20:08:47.436Z,12.18
2019-04-13T20:11:18.988Z,16.77
2019-04-13T20:13:55.198Z,10.78
2019-04-13T20:16:18.671Z,10.45
2019-04-13T20:18:47.693Z,13.95
2019-04-13T20:21:16.267Z,13.10
2019-04-13T20:23:44.760Z,12.63
2019-04-13T20:26:14.349Z,15.23
2019-04-13T20:28:43.968Z,13.70
2019-04-13T20:31:18.221Z,17.35
2019-04-13T20:33:54.782Z,14.45
2019-04-13T20:36:33.173Z,18.57
2019-04-13T20:39:04.748Z,13.40
2019-04-13T20:41:46.120Z,14.93
2019-04-13T20:44:11.313Z,14.38
2019-04-13T20:46:38.442Z,17.48
2019-04-13T20:49:08.691Z,13.38
2019-04-13T20:51:37.231Z,13.43
2019-04-13T20:54:06.002Z,13.50
2019-04-13T20:56:34.562Z,15.43
2019-04-13T20:59:04.493Z,15.08
2019-04-13T21:01:34.253Z,12.23
2019-04-13T21:04:04.406Z,15.85
2019-04-13T21:06:34.750Z,20.52
2019-04-13T21:09:09.553Z,16.52
2019-04-13T21:11:39.453Z,16.70
2019-04-13T21:14:16.709Z,18.05
2019-04-13T21:16:39.037Z,15.93
2019-04-13T21:19:08.973Z,13.70
2019-04-13T21:21:39.532Z,16.15
2019-04-13T21:26:58.786Z,14.23
2019-04-13T21:29:28.458Z,14.35
2019-04-13T21:31:58.649Z,12.75
2019-04-13T21:34:31.114Z,16.30
2019-04-13T21:37:00.927Z,17.85
2019-04-13T21:39:30.882Z,15.50
2019-04-13T21:42:00.691Z,17.85
2019-04-13T21:44:35.159Z,15.58
2019-04-13T21:47:00.992Z,13.60
2019-04-13T21:49:31.647Z,15.48
2019-04-13T21:52:01.989Z,19.07
2019-04-13T21:54:32.079Z,15.48
2019-04-13T21:57:04.593Z,21.82
2019-04-13T21:59:33.064Z,17.15
2019-04-13T22:02:17.897Z,14.03
2019-04-13T22:04:50.713Z,13.85
2019-04-13T22:07:22.276Z,18.67
2019-04-13T22:09:51.925Z,17.48
2019-04-13T22:12:20.648Z,16.40
2019-04-13T22:14:56.738Z,14.68
2019-04-13T22:17:26.738Z,18.02
2019-04-13T22:19:55.374Z,14.07
2019-04-13T22:22:24.919Z,15.65
2019-04-13T22:24:55.113Z,16.07
2019-04-13T22:27:27.102Z,16.60
2019-04-13T22:29:57.568Z,14.85
2019-04-13T22:32:27.882Z,15.93
2019-04-13T22:35:04.409Z,19.82
2019-04-13T22:37:34.307Z,13.45
2019-04-13T22:40:04.079Z,15.68
2019-04-13T22:42:33.801Z,14.80
2019-04-13T22:45:07.499Z,14.43
2019-04-13T22:47:32.405Z,18.10
2019-04-13T22:50:06.743Z,16.87
2019-04-13T22:52:52.359Z,15.15
2019-04-13T22:55:22.869Z,16.40
2019-04-13T22:57:52.199Z,15.90
2019-04-13T23:00:25.774Z,19.20
2019-04-13T23:02:54.476Z,15.03
2019-04-13T23:05:24.190Z,15.75
2019-04-13T23:07:52.838Z,31.20
2019-04-13T23:10:22.379Z,20.15
2019-04-13T23:12:50.984Z,18.10
2019-04-13T23:15:26.195Z,17.62
2019-04-13T23:17:50.780Z,19.67
2019-04-13T23:20:19.362Z,17.87
2019-04-13T23:22:47.774Z,17.17
2019-04-13T23:25:16.177Z,17.50
2019-04-13T23:27:45.900Z,16.93
2019-04-13T23:30:16.112Z,17.32
2019-04-13T23:32:44.729Z,13.08
2019-04-13T23:35:13.340Z,14.65
2019-04-13T23:37:43.066Z,14.10
2019-04-13T23:40:11.886Z,17.30
2019-04-13T23:42:46.273Z,14.00
2019-04-13T23:45:26.114Z,16.67
2019-04-13T23:47:51.497Z,17.35
2019-04-13T23:50:22.042Z,18.70
2019-04-13T23:52:54.414Z,19.73
2019-04-13T23:55:34.300Z,22.22
2019-04-13T23:58:08.355Z,17.00
